Time;durP1;ratioP1;P1;durP2;ratioP2;P2;SDS_P1;SDS_P2;PMS_P1;PMS_P2;Temp;Humidity;BMP_temperature;BMP_pressure;BME280_temperature;BME280_humidity;BME280_pressure;Samples;Min_cycle;Max_cycle;Signal;HPM_P1;HPM_P2
2022/10/14 00:01:20;;;;;;;35.47;20.33;;;13.30;99.90;;;;;;5023401;28;20500;-48
2022/10/14 00:03:47;;;;;;;33.08;18.95;;;13.40;99.90;;;;;;5013322;28;20022;-49
2022/10/14 00:06:15;;;;;;;29.88;19.05;;;13.40;99.90;;;;;;5013237;28;20057;-49
2022/10/14 00:08:42;;;;;;;24.13;18.05;;;13.30;99.90;;;;;;5013030;28;20033;-54
2022/10/14 00:11:10;;;;;;;28.83;19.90;;;13.30;99.90;;;;;;5013887;28;20084;-50
2022/10/14 00:13:36;;;;;;;28.88;20.55;;;13.30;99.90;;;;;;5013663;28;20070;-53
2022/10/14 00:16:02;;;;;;;31.48;20.73;;;13.30;99.90;;;;;;5013047;28;20033;-49
2022/10/14 00:18:28;;;;;;;31.77;20.85;;;13.40;99.90;;;;;;5013124;28;20026;-51
2022/10/14 00:20:58;;;;;;;33.15;20.98;;;13.40;99.90;;;;;;5012721;28;20052;-48
2022/10/14 00:23:24;;;;;;;31.77;19.67;;;13.40;99.90;;;;;;5012606;28;20417;-52
2022/10/14 00:25:50;;;;;;;24.45;19.02;;;13.40;99.90;;;;;;5012835;28;20014;-49
2022/10/14 00:28:16;;;;;;;32.53;20.23;;;13.40;99.90;;;;;;5012973;28;20026;-53
2022/10/14 00:30:41;;;;;;;27.33;19.88;;;13.40;99.90;;;;;;5012762;28;20113;-49
2022/10/14 00:33:07;;;;;;;30.80;21.83;;;13.40;99.90;;;;;;5012581;28;20116;-51
2022/10/14 00:35:32;;;;;;;33.22;19.77;;;13.40;99.90;;;;;;5012531;28;20501;-53
2022/10/14 00:37:58;;;;;;;27.80;20.35;;;13.50;99.90;;;;;;5012753;28;20445;-48
2022/10/14 00:40:27;;;;;;;33.20;22.25;;;13.50;99.90;;;;;;5012727;28;20057;-50
2022/10/14 00:42:52;;;;;;;29.65;20.00;;;13.50;99.90;;;;;;5012304;28;20021;-50
2022/10/14 00:45:22;;;;;;;30.52;20.55;;;13.40;99.90;;;;;;5012141;28;20027;-49
2022/10/14 00:47:51;;;;;;;28.52;21.83;;;13.50;99.90;;;;;;5012546;28;20033;-51
2022/10/14 00:50:18;;;;;;;27.33;19.90;;;13.50;99.90;;;;;;5012503;28;20018;-51
2022/10/14 00:52:44;;;;;;;29.13;21.02;;;13.50;99.90;;;;;;5012186;28;20104;-51
2022/10/14 00:55:14;;;;;;;31.63;20.67;;;13.50;99.90;;;;;;5012194;28;20041;-51
2022/10/14 00:57:40;;;;;;;32.40;21.17;;;13.50;99.90;;;;;;5012336;28;20025;-51
2022/10/14 01:00:11;;;;;;;33.75;20.27;;;13.50;99.90;;;;;;5012053;28;20022;-50
2022/10/14 01:02:36;;;;;;;35.20;21.55;;;13.50;99.90;;;;;;5011341;28;20445;-51
2022/10/14 01:05:05;;;;;;;30.50;20.10;;;13.50;99.90;;;;;;5012089;28;20018;-47
2022/10/14 01:07:39;;;;;;;27.60;21.10;;;13.50;99.90;;;;;;5012412;28;20022;-48
2022/10/14 01:10:18;;;;;;;29.65;20.33;;;13.40;99.90;;;;;;5010567;28;20033;-49
2022/10/14 01:13:21;;;;;;;30.40;20.45;;;13.50;99.90;;;;;;5011904;28;20517;-45
2022/10/14 01:16:03;;;;;;;29.17;18.85;;;13.50;99.90;;;;;;5012413;28;20341;-50
2022/10/14 01:18:46;;;;;;;24.67;19.30;;;13.40;99.90;;;;;;5011930;28;20386;-48
2022/10/14 01:21:27;;;;;;;29.63;20.52;;;13.50;99.90;;;;;;5011514;28;20030;-51
2022/10/14 01:24:05;;;;;;;32.97;19.40;;;13.50;99.90;;;;;;5011785;28;20168;-49
2022/10/14 01:26:45;;;;;;;26.08;20.15;;;13.50;99.90;;;;;;5011924;28;20026;-52
2022/10/14 01:29:41;;;;;;;32.60;19.48;;;13.50;99.90;;;;;;5011649;28;20030;-48
2022/10/14 01:32:14;;;;;;;30.27;21.38;;;13.50;99.90;;;;;;5011738;28;20042;-52
2022/10/14 01:34:49;;;;;;;28.38;18.63;;;13.50;99.90;;;;;;5011761;28;20038;-48
2022/10/14 01:37:20;;;;;;;33.35;19.48;;;13.50;99.90;;;;;;5010585;28;20088;-50
2022/10/14 01:39:56;;;;;;;29.85;19.17;;;13.50;99.90;;;;;;5011460;28;20057;-54
2022/10/14 01:42:26;;;;;;;;;;;13.50;99.90;;;;;;5012044;28;20060;-49
2022/10/14 01:44:59;;;;;;;28.67;18.75;;;13.50;99.90;;;;;;5011645;28;19909;-49
2022/10/14 01:47:29;;;;;;;30.02;19.50;;;13.50;99.90;;;;;;5011756;28;20037;-51
2022/10/14 01:50:07;;;;;;;26.60;18.60;;;13.50;99.90;;;;;;5011730;28;20026;-49
2022/10/14 01:52:39;;;;;;;29.45;19.52;;;13.50;99.90;;;;;;5011282;28;20026;-52
2022/10/14 01:55:11;;;;;;;28.52;18.83;;;13.50;99.90;;;;;;5011429;28;20513;-52
2022/10/14 01:57:39;;;;;;;30.20;19.95;;;13.50;99.90;;;;;;5011624;28;20537;-50
2022/10/14 02:00:06;;;;;;;26.77;19.50;;;13.60;99.90;;;;;;5010001;28;20507;-52
2022/10/14 02:02:35;;;;;;;31.70;20.98;;;13.50;99.90;;;;;;5011438;28;20036;-51
2022/10/14 02:05:05;;;;;;;30.73;20.33;;;13.50;99.90;;;;;;5011654;28;20022;-51
2022/10/14 02:07:41;;;;;;;25.45;18.35;;;13.50;99.90;;;;;;5011841;28;20109;-50
2022/10/14 02:10:26;;;;;;;28.17;20.15;;;13.60;99.90;;;;;;5034750;22;20046;-48
2022/10/14 02:13:07;;;;;;;38.70;27.25;;;13.50;99.90;;;;;;5012467;28;20097;-49
2022/10/14 02:15:53;;;;;;;37.53;26.08;;;13.50;99.90;;;;;;5017044;28;20030;-49
2022/10/14 02:18:22;;;;;;;29.73;19.40;;;13.50;99.90;;;;;;5018189;28;20033;-49
2022/10/14 02:20:50;;;;;;;31.20;19.02;;;13.40;99.90;;;;;;5017102;28;20117;-49
2022/10/14 02:23:21;;;;;;;32.83;19.48;;;13.40;99.90;;;;;;5016585;28;20022;-50
2022/10/14 02:25:48;;;;;;;27.40;18.35;;;13.50;99.90;;;;;;5015311;28;20025;-50
2022/10/14 02:28:20;;;;;;;29.38;19.67;;;13.40;99.90;;;;;;5015764;28;20034;-53
2022/10/14 02:30:52;;;;;;;29.40;19.30;;;13.40;99.90;;;;;;5015944;28;20033;-51
2022/10/14 02:33:21;;;;;;;33.25;19.48;;;13.50;99.90;;;;;;5015664;28;20025;-49
2022/10/14 02:35:48;;;;;;;26.08;18.67;;;13.50;99.90;;;;;;5015576;28;20370;-53
2022/10/14 02:38:15;;;;;;;32.45;18.60;;;13.50;99.90;;;;;;5013996;28;20053;-49
2022/10/14 02:40:45;;;;;;;33.88;18.95;;;13.40;99.90;;;;;;5015314;28;20025;-49
2022/10/14 02:43:11;;;;;;;27.13;19.45;;;13.50;99.90;;;;;;5015159;28;20026;-49
2022/10/14 02:45:38;;;;;;;28.70;19.15;;;13.50;99.90;;;;;;5015315;28;20548;-48
2022/10/14 02:48:05;;;;;;;29.65;18.52;;;13.50;99.90;;;;;;5014057;28;20028;-51
2022/10/14 02:50:31;;;;;;;31.77;18.63;;;13.50;99.90;;;;;;5015254;28;20060;-50
2022/10/14 02:52:57;;;;;;;28.40;19.45;;;13.50;99.90;;;;;;5013543;28;20060;-50
2022/10/14 02:55:22;;;;;;;32.33;19.20;;;13.50;99.90;;;;;;5013956;28;20029;-49
2022/10/14 02:57:48;;;;;;;29.88;18.85;;;13.50;99.90;;;;;;5015441;28;20057;-55
2022/10/14 03:00:14;;;;;;;28.65;18.38;;;13.50;99.90;;;;;;5015897;28;20022;-53
2022/10/14 03:02:39;;;;;;;25.27;17.83;;;13.50;99.90;;;;;;5014702;28;20053;-49
2022/10/14 03:05:05;;;;;;;28.10;18.13;;;13.50;99.90;;;;;;5015013;28;20482;-53
2022/10/14 03:07:31;;;;;;;27.38;18.50;;;13.50;99.90;;;;;;5015366;28;20026;-51
2022/10/14 03:09:57;;;;;;;28.83;17.65;;;13.50;99.90;;;;;;5014620;28;20026;-50
2022/10/14 03:12:23;;;;;;;26.48;17.35;;;13.50;99.90;;;;;;5014852;28;20029;-52
2022/10/14 03:14:48;;;;;;;29.55;18.30;;;13.40;99.90;;;;;;5014884;28;20512;-54
2022/10/14 03:17:14;;;;;;;27.75;17.88;;;13.50;99.90;;;;;;5014813;28;20034;-48
2022/10/14 03:19:40;;;;;;;23.27;17.13;;;13.50;99.90;;;;;;5015593;28;20022;-49
2022/10/14 03:22:05;;;;;;;28.00;17.98;;;13.50;99.90;;;;;;5014230;28;20041;-49
2022/10/14 03:24:31;;;;;;;25.60;17.42;;;13.50;99.90;;;;;;5014585;28;20460;-50
2022/10/14 03:26:57;;;;;;;25.48;17.25;;;13.50;99.90;;;;;;5013807;28;20034;-47
2022/10/14 03:29:22;;;;;;;32.47;19.15;;;13.50;99.90;;;;;;5013601;28;20109;-49
2022/10/14 03:31:48;;;;;;;31.40;17.85;;;13.50;99.90;;;;;;5015249;28;20501;-53
2022/10/14 03:34:13;;;;;;;26.52;16.42;;;13.50;99.90;;;;;;5014938;28;20029;-51
2022/10/14 03:36:39;;;;;;;25.10;16.23;;;13.40;99.90;;;;;;5013128;28;20069;-50
2022/10/14 03:39:04;;;;;;;22.48;16.20;;;13.50;99.90;;;;;;5014335;28;20106;-48
2022/10/14 03:41:30;;;;;;;24.27;16.90;;;13.40;99.90;;;;;;5014389;28;20033;-51
2022/10/14 03:43:55;;;;;;;21.00;15.43;;;13.40;99.90;;;;;;5014074;28;20036;-48
2022/10/14 03:46:21;;;;;;;22.00;16.05;;;13.40;99.90;;;;;;5013010;28;20489;-49
2022/10/14 03:48:46;;;;;;;26.27;17.23;;;13.40;99.90;;;;;;5014214;28;20030;-49
2022/10/14 03:51:12;;;;;;;25.58;17.23;;;13.40;99.90;;;;;;5013834;28;20505;-48
2022/10/14 03:53:38;;;;;;;25.58;18.05;;;13.40;99.90;;;;;;5013883;28;20030;-47
2022/10/14 03:56:04;;;;;;;27.25;17.80;;;13.40;99.90;;;;;;5014165;28;20034;-48
2022/10/14 03:58:29;;;;;;;30.45;17.88;;;13.40;99.90;;;;;;5014292;28;20114;-49
2022/10/14 04:00:55;;;;;;;25.48;15.90;;;13.40;99.90;;;;;;5013927;28;20029;-54
2022/10/14 04:03:20;;;;;;;22.55;15.80;;;13.40;99.90;;;;;;5014213;28;20036;-48
2022/10/14 04:05:46;;;;;;;24.23;15.80;;;13.40;99.90;;;;;;5013577;28;20377;-50
2022/10/14 04:08:11;;;;;;;25.95;16.08;;;13.30;99.90;;;;;;5013671;28;20029;-51
2022/10/14 04:10:37;;;;;;;25.75;16.00;;;13.40;99.90;;;;;;5013725;28;20104;-48
2022/10/14 04:13:03;;;;;;;23.67;15.35;;;13.40;99.90;;;;;;5013562;28;20022;-49
2022/10/14 04:15:28;;;;;;;21.83;15.68;;;13.40;99.90;;;;;;5013652;28;20022;-49
2022/10/14 04:17:55;;;;;;;26.40;16.52;;;13.40;99.90;;;;;;5013647;28;20029;-53
2022/10/14 04:20:21;;;;;;;24.75;16.00;;;13.40;99.90;;;;;;5013278;28;20121;-52
2022/10/14 04:22:46;;;;;;;22.40;15.75;;;13.40;99.90;;;;;;5013529;28;20037;-53
2022/10/14 04:25:12;;;;;;;28.65;17.50;;;13.40;99.90;;;;;;5013536;28;20026;-56
2022/10/14 04:27:37;;;;;;;27.58;17.10;;;13.50;99.90;;;;;;5013740;28;20374;-50
2022/10/14 04:30:04;;;;;;;21.40;16.13;;;13.50;99.90;;;;;;5013273;28;20018;-51
2022/10/14 04:32:30;;;;;;;27.67;16.65;;;13.50;99.90;;;;;;5013172;28;20033;-52
2022/10/14 04:34:55;;;;;;;23.88;15.80;;;13.40;99.90;;;;;;5013088;28;20396;-51
2022/10/14 04:37:21;;;;;;;32.05;17.00;;;13.40;99.90;;;;;;5013028;28;20040;-52
2022/10/14 04:39:46;;;;;;;24.55;16.65;;;13.40;99.90;;;;;;5013464;28;20057;-50
2022/10/14 04:42:12;;;;;;;27.75;15.70;;;13.40;99.90;;;;;;5011499;28;20018;-49
2022/10/14 04:44:37;;;;;;;26.73;17.10;;;13.40;99.90;;;;;;5012348;28;20057;-50
2022/10/14 04:47:04;;;;;;;23.13;16.80;;;13.40;99.90;;;;;;5014273;28;20028;-56
2022/10/14 04:49:29;;;;;;;28.33;15.98;;;13.40;99.90;;;;;;5013951;28;20064;-55
2022/10/14 04:51:55;;;;;;;24.40;17.08;;;13.40;99.90;;;;;;5014338;28;20406;-52
2022/10/14 04:54:20;;;;;;;26.17;17.45;;;13.40;99.90;;;;;;5014755;28;20026;-49
2022/10/14 04:56:46;;;;;;;23.25;15.45;;;13.40;99.90;;;;;;5014418;28;20033;-53
2022/10/14 04:59:12;;;;;;;25.65;16.63;;;13.40;99.90;;;;;;5014361;28;20036;-50
2022/10/14 05:01:38;;;;;;;24.92;16.65;;;13.40;99.90;;;;;;5013117;28;20025;-55
2022/10/14 05:04:04;;;;;;;24.60;17.63;;;13.30;99.90;;;;;;5012785;28;20022;-51
2022/10/14 05:06:29;;;;;;;25.23;16.23;;;13.40;99.90;;;;;;5011649;28;20030;-49
2022/10/14 05:08:55;;;;;;;32.55;17.00;;;13.30;99.90;;;;;;5012800;28;20048;-48
2022/10/14 05:11:21;;;;;;;24.35;16.25;;;13.30;99.90;;;;;;5012270;28;20034;-54
2022/10/14 05:13:46;;;;;;;24.48;16.17;;;13.30;99.90;;;;;;5012468;28;20029;-54
2022/10/14 05:16:12;;;;;;;30.67;16.35;;;13.30;99.90;;;;;;5012467;28;20523;-52
2022/10/14 05:18:38;;;;;;;27.73;17.05;;;13.30;99.90;;;;;;5010956;28;20125;-50
2022/10/14 05:21:03;;;;;;;25.30;16.60;;;13.30;99.90;;;;;;5012006;28;20097;-53
2022/10/14 05:23:29;;;;;;;21.48;14.95;;;13.30;99.90;;;;;;5012146;28;20049;-55
2022/10/14 05:25:54;;;;;;;25.02;17.63;;;13.30;99.90;;;;;;5010999;28;20018;-50
2022/10/14 05:28:20;;;;;;;22.35;16.27;;;13.30;99.90;;;;;;5012598;28;20528;-51
2022/10/14 05:30:45;;;;;;;22.98;16.92;;;13.30;99.90;;;;;;5010978;28;20029;-52
2022/10/14 05:33:11;;;;;;;28.90;17.08;;;13.30;99.90;;;;;;5010632;28;20026;-50
2022/10/14 05:35:37;;;;;;;24.27;16.02;;;13.30;99.90;;;;;;5012343;28;20026;-52
2022/10/14 05:38:03;;;;;;;23.42;16.15;;;13.30;99.90;;;;;;5012252;28;20105;-53
2022/10/14 05:40:29;;;;;;;25.02;17.25;;;13.40;99.90;;;;;;5012005;28;20104;-51
2022/10/14 05:42:54;;;;;;;28.70;17.13;;;13.30;99.90;;;;;;5010431;28;20022;-53
2022/10/14 05:45:20;;;;;;;25.70;17.67;;;13.30;99.90;;;;;;5011988;28;20520;-54
2022/10/14 05:47:46;;;;;;;28.23;18.23;;;13.30;99.90;;;;;;5010682;28;20053;-49
2022/10/14 05:50:12;;;;;;;31.80;18.75;;;13.40;99.90;;;;;;5015605;28;20053;-53
2022/10/14 05:52:39;;;;;;;27.98;18.60;;;13.30;99.90;;;;;;5018315;28;20037;-50
2022/10/14 05:55:06;;;;;;;27.45;19.02;;;13.30;99.90;;;;;;5018868;28;20108;-53
2022/10/14 05:57:32;;;;;;;23.40;17.52;;;13.30;99.90;;;;;;5017245;28;20029;-49
2022/10/14 05:59:58;;;;;;;29.27;16.38;;;13.30;99.90;;;;;;5018577;28;20030;-49
2022/10/14 06:02:24;;;;;;;30.77;18.73;;;13.30;99.90;;;;;;5018322;28;20022;-51
2022/10/14 06:04:50;;;;;;;28.33;18.67;;;13.30;99.90;;;;;;5018997;28;20037;-53
2022/10/14 06:07:15;;;;;;;29.23;18.13;;;13.30;99.90;;;;;;5017214;28;20026;-54
2022/10/14 06:09:41;;;;;;;29.05;18.20;;;13.30;99.90;;;;;;5018402;28;20036;-49
2022/10/14 06:12:07;;;;;;;28.95;18.25;;;13.30;99.90;;;;;;5018413;28;20054;-48
2022/10/14 06:14:32;;;;;;;30.17;19.30;;;13.30;99.90;;;;;;5018608;28;20033;-52
2022/10/14 06:16:58;;;;;;;28.92;18.90;;;13.30;99.90;;;;;;5018664;28;20026;-53
2022/10/14 06:19:23;;;;;;;32.40;18.83;;;13.30;99.90;;;;;;5018581;28;20026;-50
2022/10/14 06:21:49;;;;;;;33.50;18.45;;;13.40;99.90;;;;;;5017648;28;20476;-51
2022/10/14 06:24:14;;;;;;;25.45;18.15;;;13.40;99.90;;;;;;5018338;28;20375;-51
2022/10/14 06:26:40;;;;;;;34.63;18.15;;;13.40;99.90;;;;;;5018369;28;20030;-54
2022/10/14 06:29:06;;;;;;;26.30;17.95;;;13.40;99.90;;;;;;5018496;28;20113;-50
2022/10/14 06:31:32;;;;;;;24.95;17.92;;;13.40;99.90;;;;;;5018527;28;20437;-51
2022/10/14 06:33:57;;;;;;;28.05;18.90;;;13.40;99.90;;;;;;5018288;28;20091;-51
2022/10/14 06:36:23;;;;;;;26.08;18.23;;;13.40;99.90;;;;;;5018676;28;20049;-52
2022/10/14 06:38:48;;;;;;;29.42;19.30;;;13.50;99.90;;;;;;5018497;28;20105;-51
2022/10/14 06:41:14;;;;;;;26.92;18.75;;;13.50;99.90;;;;;;5018238;28;20026;-50
2022/10/14 06:43:40;;;;;;;36.10;19.15;;;13.50;99.90;;;;;;5018754;28;20097;-52
2022/10/14 06:46:06;;;;;;;32.40;20.35;;;13.50;99.90;;;;;;5019028;28;20032;-53
2022/10/14 06:48:31;;;;;;;30.17;18.23;;;13.60;99.90;;;;;;5018560;28;20013;-53
2022/10/14 06:51:01;;;;;;;29.30;19.67;;;13.60;99.90;;;;;;5018727;28;20032;-50
2022/10/14 06:53:28;;;;;;;30.35;18.63;;;13.60;99.90;;;;;;5017915;28;20064;-52
2022/10/14 06:56:11;;;;;;;34.80;20.30;;;13.60;99.90;;;;;;5017331;28;20028;-47
2022/10/14 06:58:37;;;;;;;36.72;20.65;;;13.60;99.90;;;;;;5018724;28;20080;-53
2022/10/14 07:01:04;;;;;;;34.08;20.67;;;13.60;99.90;;;;;;5015481;28;20433;-54
2022/10/14 07:03:30;;;;;;;35.08;20.00;;;13.60;99.90;;;;;;5015347;28;20033;-55
2022/10/14 07:05:56;;;;;;;36.58;20.35;;;13.60;99.90;;;;;;5015348;28;20018;-52
2022/10/14 07:08:21;;;;;;;32.08;20.05;;;13.50;99.90;;;;;;5015373;28;20029;-50
2022/10/14 07:10:47;;;;;;;33.28;20.73;;;13.50;99.90;;;;;;5015110;28;20034;-51
2022/10/14 07:13:13;;;;;;;39.72;22.50;;;13.50;99.90;;;;;;5014562;28;20032;-52
2022/10/14 07:15:39;;;;;;;37.47;21.38;;;13.60;99.90;;;;;;5015603;28;20151;-50
2022/10/14 07:18:05;;;;;;;35.70;22.38;;;13.60;99.90;;;;;;5014672;28;20080;-51
2022/10/14 07:20:32;;;;;;;31.10;21.30;;;13.50;99.90;;;;;;5014345;28;20533;-54
2022/10/14 07:22:58;;;;;;;35.22;21.95;;;13.60;99.90;;;;;;5014976;28;20022;-49
2022/10/14 07:25:23;;;;;;;35.03;22.90;;;13.60;99.90;;;;;;5014963;28;20095;-52
2022/10/14 07:27:51;;;;;;;36.25;22.52;;;13.60;99.90;;;;;;5015291;28;20093;-50
2022/10/14 07:30:17;;;;;;;38.40;23.38;;;13.60;99.90;;;;;;5014428;28;20025;-49
2022/10/14 07:32:42;;;;;;;33.45;22.77;;;13.60;99.90;;;;;;5014444;28;20029;-50
2022/10/14 07:35:08;;;;;;;38.78;23.20;;;13.70;99.90;;;;;;5014680;28;20519;-51
2022/10/14 07:37:33;;;;;;;37.00;22.92;;;13.70;99.90;;;;;;5014346;28;20120;-51
2022/10/14 07:39:59;;;;;;;34.75;21.75;;;13.70;99.90;;;;;;5013000;28;20501;-53
2022/10/14 07:42:24;;;;;;;33.03;21.98;;;13.70;99.90;;;;;;5014188;28;20102;-51
2022/10/14 07:44:52;;;;;;;31.95;22.40;;;13.70;99.90;;;;;;5014535;28;20030;-55
2022/10/14 07:47:18;;;;;;;37.58;23.30;;;13.70;99.90;;;;;;5014320;28;20017;-54
2022/10/14 07:49:44;;;;;;;32.75;22.58;;;13.70;99.90;;;;;;5014323;28;20481;-54
2022/10/14 07:52:09;;;;;;;39.30;22.95;;;13.70;99.90;;;;;;5014322;28;20026;-50
2022/10/14 07:54:35;;;;;;;34.97;21.30;;;13.70;99.90;;;;;;5014285;28;20477;-53
2022/10/14 07:57:00;;;;;;;35.40;22.55;;;13.80;99.90;;;;;;5014116;28;20034;-52
2022/10/14 07:59:26;;;;;;;33.78;20.95;;;13.80;99.90;;;;;;5013026;28;20037;-53
2022/10/14 08:01:52;;;;;;;34.30;21.52;;;13.80;99.90;;;;;;5013789;28;20026;-51
2022/10/14 08:04:18;;;;;;;31.67;20.05;;;13.80;99.90;;;;;;5012700;28;20029;-52
2022/10/14 08:06:47;;;;;;;35.17;21.27;;;13.80;99.90;;;;;;5012513;28;20033;-50
2022/10/14 08:09:13;;;;;;;36.28;20.63;;;13.90;99.90;;;;;;5013388;28;20073;-53
2022/10/14 08:11:38;;;;;;;28.15;19.83;;;13.90;99.90;;;;;;5014459;28;20030;-51
2022/10/14 08:14:04;;;;;;;32.72;18.90;;;14.00;99.90;;;;;;5013104;28;20030;-51
2022/10/14 08:16:33;;;;;;;30.13;18.58;;;14.00;99.90;;;;;;5012320;28;20033;-50
2022/10/14 08:19:06;;;;;;;29.90;17.27;;;14.10;99.90;;;;;;5013368;28;20109;-53
2022/10/14 08:21:32;;;;;;;28.77;17.92;;;14.10;99.90;;;;;;5013483;28;20093;-52
2022/10/14 08:23:58;;;;;;;29.92;17.80;;;14.10;99.90;;;;;;5012114;28;20485;-51
2022/10/14 08:26:27;;;;;;;27.55;16.92;;;14.10;99.90;;;;;;5013327;28;20454;-52
2022/10/14 08:28:52;;;;;;;34.22;18.08;;;14.10;99.90;;;;;;5011964;28;20029;-52
2022/10/14 08:31:19;;;;;;;23.58;16.30;;;14.10;99.90;;;;;;5012055;28;20030;-54
2022/10/14 08:33:45;;;;;;;25.55;16.42;;;14.10;99.90;;;;;;5013428;28;20025;-54
2022/10/14 08:36:10;;;;;;;23.45;14.80;;;14.10;99.90;;;;;;5013674;28;20564;-57
2022/10/14 08:38:36;;;;;;;22.55;16.13;;;14.20;99.90;;;;;;5013249;28;20118;-50
2022/10/14 08:41:25;;;;;;;23.92;15.27;;;14.20;99.90;;;;;;5013447;28;20033;-51
2022/10/14 08:44:12;;;;;;;23.05;15.18;;;14.30;99.90;;;;;;5013216;28;20053;-51
2022/10/14 08:46:56;;;;;;;27.27;15.75;;;14.30;99.90;;;;;;5013025;28;20022;-50
2022/10/14 08:49:44;;;;;;;17.25;14.00;;;14.30;99.90;;;;;;5012787;28;20149;-53
2022/10/14 08:52:32;;;;;;;26.90;14.38;;;14.30;99.90;;;;;;5013510;28;20033;-53
2022/10/14 08:55:02;;;;;;;22.35;13.45;;;14.40;99.90;;;;;;4982554;28;20037;-52
2022/10/14 08:57:36;;;;;;;22.00;14.35;;;14.40;99.90;;;;;;5013442;28;20014;-52
2022/10/14 09:00:02;;;;;;;19.27;13.32;;;14.40;99.90;;;;;;5012829;28;20042;-54
2022/10/14 09:02:48;;;;;;;18.63;13.00;;;14.50;99.90;;;;;;5011195;28;20072;-53
2022/10/14 09:05:24;;;;;;;20.33;13.82;;;14.50;99.90;;;;;;5012735;28;20108;-49
2022/10/14 09:07:54;;;;;;;20.55;13.30;;;14.50;99.90;;;;;;5011420;28;20378;-52
2022/10/14 09:10:26;;;;;;;20.10;13.98;;;14.50;99.90;;;;;;5012393;28;20037;-51
2022/10/14 09:12:54;;;;;;;25.15;13.52;;;14.50;99.90;;;;;;5012567;28;20026;-50
2022/10/14 09:15:31;;;;;;;18.17;13.45;;;14.60;99.90;;;;;;5012857;28;20065;-51
2022/10/14 09:18:06;;;;;;;21.80;13.50;;;14.60;99.90;;;;;;5012770;28;20108;-53
2022/10/14 09:20:32;;;;;;;17.15;13.20;;;14.70;99.90;;;;;;5012393;28;20370;-50
2022/10/14 09:23:03;;;;;;;18.77;11.93;;;14.80;99.90;;;;;;5012890;28;20136;-49
2022/10/14 09:25:32;;;;;;;19.05;13.13;;;14.80;99.90;;;;;;5012867;28;20398;-54
2022/10/14 09:27:58;;;;;;;17.42;10.85;;;14.80;99.90;;;;;;5013399;28;20033;-52
2022/10/14 09:30:24;;;;;;;16.92;12.52;;;14.90;99.90;;;;;;5013465;28;20026;-52
2022/10/14 09:32:52;;;;;;;18.73;12.20;;;15.00;99.90;;;;;;5013300;28;20401;-50
2022/10/14 09:35:34;;;;;;;17.88;12.63;;;15.00;99.90;;;;;;5013044;28;20018;-53
2022/10/14 09:37:59;;;;;;;20.73;11.88;;;15.00;99.90;;;;;;5012763;28;20409;-55
2022/10/14 09:40:39;;;;;;;18.83;12.25;;;15.10;99.90;;;;;;5011354;28;20030;-50
2022/10/14 09:43:14;;;;;;;16.45;12.15;;;15.10;99.90;;;;;;5012414;28;20048;-51
2022/10/14 09:45:49;;;;;;;18.25;11.68;;;15.20;99.90;;;;;;5012503;28;20026;-54
2022/10/14 09:48:19;;;;;;;13.77;10.30;;;15.30;99.90;;;;;;5012745;28;20050;-54
2022/10/14 09:50:50;;;;;;;17.27;10.65;;;15.30;99.90;;;;;;5012467;28;20030;-54
2022/10/14 09:53:28;;;;;;;17.10;10.82;;;15.40;99.90;;;;;;5012281;28;20053;-53
2022/10/14 09:56:05;;;;;;;16.25;10.38;;;15.50;99.90;;;;;;5012547;28;20061;-50
2022/10/14 09:58:54;;;;;;;16.95;11.40;;;15.60;99.90;;;;;;5012232;28;20034;-51
2022/10/14 10:01:22;;;;;;;15.52;10.07;;;15.70;99.90;;;;;;5011653;28;20022;-50
2022/10/14 10:03:50;;;;;;;19.75;10.35;;;15.80;99.90;;;;;;5012773;28;20022;-54
2022/10/14 10:06:26;;;;;;;16.48;9.20;;;15.80;99.90;;;;;;5013052;28;20030;-52
2022/10/14 10:08:51;;;;;;;13.23;9.05;;;15.90;99.90;;;;;;5012719;28;20088;-50
2022/10/14 10:11:36;;;;;;;16.85;9.48;;;15.90;99.90;;;;;;5011205;28;20030;-55
2022/10/14 10:14:24;;;;;;;13.05;8.45;;;15.90;99.90;;;;;;5010961;28;20022;-55
2022/10/14 10:17:15;;;;;;;18.33;9.57;;;15.90;99.90;;;;;;5012560;28;20040;-55
2022/10/14 10:19:44;;;;;;;19.35;9.93;;;15.90;99.90;;;;;;5012543;28;20064;-48
2022/10/14 10:22:18;;;;;;;16.17;9.32;;;16.00;99.90;;;;;;5011644;28;20556;-50
2022/10/14 10:25:05;;;;;;;11.13;8.32;;;16.00;99.90;;;;;;5012361;28;20112;-52
2022/10/14 10:27:35;;;;;;;12.18;8.02;;;16.00;99.90;;;;;;4998876;28;20405;-48
2022/10/14 10:30:21;;;;;;;11.73;7.40;;;16.00;99.90;;;;;;5011968;28;20080;-49
2022/10/14 10:32:49;;;;;;;12.10;7.63;;;16.10;99.90;;;;;;5010558;28;20034;-51
2022/10/14 10:35:35;;;;;;;12.07;7.93;;;16.10;99.90;;;;;;5012833;28;20413;-51
2022/10/14 10:38:19;;;;;;;13.68;7.95;;;16.00;99.90;;;;;;5015825;28;20049;-48
2022/10/14 10:40:46;;;;;;;20.65;7.78;;;16.10;99.90;;;;;;5015210;28;20029;-53
2022/10/14 10:43:24;;;;;;;13.18;7.80;;;16.00;99.90;;;;;;5015207;28;20022;-49
2022/10/14 10:46:11;;;;;;;8.55;7.03;;;16.00;99.90;;;;;;5015495;28;20025;-48
2022/10/14 10:48:48;;;;;;;11.27;7.72;;;16.00;99.90;;;;;;5014069;28;20117;-48
2022/10/14 10:51:37;;;;;;;9.57;7.47;;;15.90;99.90;;;;;;5015444;28;20026;-54
2022/10/14 10:54:24;;;;;;;11.50;7.25;;;15.90;99.90;;;;;;5015082;28;20026;-50
2022/10/14 10:57:28;;;;;;;11.07;6.97;;;15.90;99.90;;;;;;5014945;28;20080;-47
2022/10/14 11:00:16;;;;;;;9.35;6.57;;;15.90;99.90;;;;;;4972989;28;20189;-52
2022/10/14 11:03:18;;;;;;;15.32;8.57;;;15.90;99.90;;;;;;5014650;28;20425;-51
2022/10/14 11:06:04;;;;;;;11.77;7.53;;;15.90;99.90;;;;;;5014683;28;20018;-50
2022/10/14 11:12:01;;;;;;;14.25;8.18;;;16.00;99.90;;;;;;5014952;28;20088;-52
2022/10/14 11:15:08;;;;;;;15.32;7.78;;;15.90;99.90;;;;;;5014993;28;20040;-52
2022/10/14 11:18:00;;;;;;;11.30;7.53;;;15.90;99.90;;;;;;4935082;29;20032;-53
2022/10/14 11:20:46;;;;;;;12.68;7.82;;;15.90;99.90;;;;;;5003480;28;20112;-53
2022/10/14 11:23:30;;;;;;;17.95;9.38;;;15.90;99.90;;;;;;5014132;28;20461;-50
2022/10/14 11:26:14;;;;;;;22.33;13.43;;;15.90;99.90;;;;;;5014550;28;20054;-53
2022/10/14 11:28:59;;;;;;;11.35;7.55;;;15.90;99.90;;;;;;5014612;28;20061;-51
2022/10/14 11:31:41;;;;;;;11.15;7.40;;;15.90;99.90;;;;;;5012959;28;20125;-54
2022/10/14 11:34:28;;;;;;;12.77;7.43;;;15.90;99.90;;;;;;5014197;28;20029;-49
2022/10/14 11:37:10;;;;;;;15.55;8.00;;;15.90;99.90;;;;;;5012819;28;20124;-51
2022/10/14 11:39:47;;;;;;;13.07;8.50;;;15.90;99.90;;;;;;5014305;28;20026;-50
2022/10/14 11:42:37;;;;;;;14.55;7.57;;;15.80;99.90;;;;;;5014131;28;20037;-55
2022/10/14 11:45:35;;;;;;;22.00;7.85;;;15.70;99.90;;;;;;5014326;28;20033;-53
2022/10/14 11:48:30;;;;;;;11.95;7.82;;;15.70;99.90;;;;;;5013569;28;20045;-49
2022/10/14 11:51:14;;;;;;;16.83;8.02;;;15.60;99.90;;;;;;5014114;28;20028;-51
2022/10/14 11:54:02;;;;;;;13.60;7.80;;;15.60;99.90;;;;;;5013685;28;20081;-52
2022/10/14 11:56:40;;;;;;;16.08;8.68;;;15.50;99.90;;;;;;5014232;28;20026;-54
2022/10/14 11:59:35;;;;;;;12.75;8.63;;;15.40;99.90;;;;;;5013994;28;20030;-52
2022/10/14 12:02:25;;;;;;;15.75;7.90;;;15.40;99.90;;;;;;5013312;28;20397;-52
2022/10/14 12:05:15;;;;;;;14.35;8.05;;;15.30;99.90;;;;;;5013857;28;20113;-50
2022/10/14 12:07:49;;;;;;;14.70;7.75;;;15.30;99.90;;;;;;5013820;28;20029;-54
2022/10/14 12:10:27;;;;;;;14.57;7.72;;;15.20;99.90;;;;;;5013385;28;20128;-53
2022/10/14 12:12:54;;;;;;;15.48;8.07;;;15.20;99.90;;;;;;5013471;28;20029;-54
2022/10/14 12:15:23;;;;;;;15.50;7.88;;;15.20;99.90;;;;;;5014362;28;20116;-55
2022/10/14 12:17:54;;;;;;;10.35;7.80;;;15.20;99.90;;;;;;5014284;28;20026;-50
2022/10/14 12:20:36;;;;;;;16.10;8.90;;;15.20;99.90;;;;;;5013154;28;20041;-51
2022/10/14 12:23:06;;;;;;;11.75;7.53;;;15.10;99.90;;;;;;5013367;28;20044;-55
2022/10/14 12:25:42;;;;;;;14.77;8.48;;;15.00;99.90;;;;;;5013253;28;20065;-51
2022/10/14 12:28:11;;;;;;;11.10;7.97;;;15.10;99.90;;;;;;5013172;28;20036;-51
2022/10/14 12:30:39;;;;;;;16.92;9.18;;;15.10;99.90;;;;;;5013024;28;20403;-49
2022/10/14 12:33:09;;;;;;;16.35;9.52;;;15.00;99.90;;;;;;5012479;28;20014;-52
2022/10/14 12:36:00;;;;;;;14.18;8.35;;;15.00;99.90;;;;;;5012548;28;20029;-53
2022/10/14 12:38:28;;;;;;;17.00;8.93;;;15.00;99.90;;;;;;5011038;28;20094;-57
2022/10/14 12:40:54;;;;;;;11.82;8.20;;;14.90;99.90;;;;;;5010414;28;20018;-52
2022/10/14 12:43:28;;;;;;;16.83;8.98;;;15.00;99.90;;;;;;5012528;28;20033;-52
2022/10/14 12:46:14;;;;;;;13.07;8.52;;;15.00;99.90;;;;;;5012649;28;20018;-51
2022/10/14 12:48:50;;;;;;;52.88;27.20;;;15.00;99.90;;;;;;5012774;28;20393;-49
2022/10/14 12:51:21;;;;;;;13.60;9.20;;;15.00;99.90;;;;;;5012695;28;20402;-50